Terminal Aerodrome Forecast
Issued by NWS

Home | Current Version | Previous Version | Text Only | Print | Product List | Glossary On
Versions: 1 2 3 4 5 6 7 8 9 10 11 12 13 14 15 16 17 18 19 20 21 22 23 24 25 26 27 28
982
FTUS41 KOKX 251305 AAA
TAFHPN
TAF AMD
KHPN 251305Z 2513/2612 VRB04KT P6SM SCT060 BKN100
     FM251500 23007KT P6SM SCT050 SCT100
     FM252000 26008KT P6SM BKN070 BKN250
      TEMPO 2520/2524 3SM TSRA BKN040CB
     FM260000 30005KT P6SM BKN100 PROB30 2600/2602 4SM TSRA BKN040CB
     FM260200 24005KT P6SM SCT100 BKN250
     FM260800 VRB04KT 5SM BR SCT250
      AMD NOT SKED=

USA.gov is the U.S. government's official web portal to all federal, state and local government web resources and services.